Time;durP1;ratioP1;P1;durP2;ratioP2;P2;SDS_P1;SDS_P2;PMS_P1;PMS_P2;Temp;Humidity;BMP_temperature;BMP_pressure;BME280_temperature;BME280_humidity;BME280_pressure;Samples;Min_cycle;Max_cycle;Signal;HPM_P1;HPM_P2
2022/09/05 00:00:59;;;;;;;5.70;2.72;;;;;;;;;;4993616;28;88638;-73
2022/09/05 00:03:39;;;;;;;4.97;2.75;;;;;;;;;;5001020;28;88522;-74
2022/09/05 00:06:10;;;;;;;3.95;2.50;;;;;;;;;;4991531;28;88296;-74
2022/09/05 00:08:56;;;;;;;5.90;2.75;;;;;;;;;;4993474;28;88073;-74
2022/09/05 00:11:34;;;;;;;4.95;3.13;;;;;;;;;;5018476;28;89625;-74
2022/09/05 00:14:24;;;;;;;4.50;2.85;;;;;;;;;;5012780;28;89695;-74
2022/09/05 00:17:20;;;;;;;5.93;3.28;;;;;;;;;;4988958;28;89376;-74
2022/09/05 00:19:51;;;;;;;9.05;3.08;;;;;;;;;;5005631;28;88628;-74
2022/09/05 00:22:56;;;;;;;8.90;3.80;;;;;;;;;;4990492;28;88039;-74
2022/09/05 00:26:12;;;;;;;3.45;3.03;;;;;;;;;;5000149;28;88438;-74
2022/09/05 00:28:41;;;;;;;10.40;3.22;;;;;;;;;;5006299;28;88744;-73
2022/09/05 00:31:10;;;;;;;5.38;3.67;;;;;;;;;;5000629;28;88953;-73
2022/09/05 00:34:19;;;;;;;7.90;3.60;;;;;;;;;;4999134;28;88397;-73
2022/09/05 00:36:52;;;;;;;7.90;3.15;;;;;;;;;;4942166;28;89039;-73
2022/09/05 00:39:30;;;;;;;9.02;3.45;;;;;;;;;;4951886;28;88058;-74
2022/09/05 00:42:04;;;;;;;18.23;3.88;;;;;;;;;;4922309;28;89002;-74
2022/09/05 00:44:32;;;;;;;5.05;3.10;;;;;;;;;;4950700;28;88718;-74
2022/09/05 00:47:17;;;;;;;7.45;2.90;;;;;;;;;;4944404;28;89646;-74
2022/09/05 00:49:47;;;;;;;5.88;2.88;;;;;;;;;;4942251;28;89052;-75
2022/09/05 00:52:26;;;;;;;2.95;2.50;;;;;;;;;;4935343;28;90674;-74
2022/09/05 00:54:58;;;;;;;3.00;2.75;;;;;;;;;;4937126;28;88965;-74
2022/09/05 00:57:43;;;;;;;5.38;2.75;;;;;;;;;;4936303;28;88822;-74
2022/09/05 01:00:11;;;;;;;5.00;2.97;;;;;;;;;;4939743;28;89139;-74
2022/09/05 01:03:01;;;;;;;5.43;2.97;;;;;;;;;;4938912;28;89487;-74
2022/09/05 01:05:39;;;;;;;5.85;3.10;;;;;;;;;;4932080;28;88898;-75
2022/09/05 01:08:21;;;;;;;3.53;2.85;;;;;;;;;;4922645;28;89667;-74
2022/09/05 01:10:47;;;;;;;11.40;3.00;;;;;;;;;;4934618;28;89157;-74
2022/09/05 01:13:14;;;;;;;8.60;2.55;;;;;;;;;;4943115;28;88485;-74
2022/09/05 01:15:48;;;;;;;9.00;2.80;;;;;;;;;;4996458;28;88767;-74
2022/09/05 01:18:20;;;;;;;14.68;3.30;;;;;;;;;;5011468;28;88984;-74
2022/09/05 01:20:49;;;;;;;7.75;3.00;;;;;;;;;;4994744;28;88068;-74
2022/09/05 01:23:34;;;;;;;4.90;3.28;;;;;;;;;;5002334;28;89935;-74
2022/09/05 01:26:09;;;;;;;7.97;3.00;;;;;;;;;;5000765;28;88269;-73
2022/09/05 01:28:45;;;;;;;8.23;3.08;;;;;;;;;;4996515;28;88008;-73
2022/09/05 01:31:32;;;;;;;2.97;2.65;;;;;;;;;;4988859;28;88893;-74
2022/09/05 01:34:27;;;;;;;11.30;3.85;;;;;;;;;;4990479;28;88699;-73
2022/09/05 01:36:57;;;;;;;4.13;3.20;;;;;;;;;;4997160;28;90646;-73
2022/09/05 01:39:42;;;;;;;3.47;3.17;;;;;;;;;;5011150;28;89866;-73
2022/09/05 01:42:54;;;;;;;5.45;3.17;;;;;;;;;;4989479;28;88120;-74
2022/09/05 01:45:27;;;;;;;8.05;3.97;;;;;;;;;;4996890;28;88601;-74
2022/09/05 01:48:09;;;;;;;6.82;3.13;;;;;;;;;;4994133;28;89226;-74
2022/09/05 01:50:42;;;;;;;16.45;4.47;;;;;;;;;;4996041;28;88210;-74
2022/09/05 01:53:12;;;;;;;4.53;3.40;;;;;;;;;;5006215;28;90041;-74
2022/09/05 01:55:58;;;;;;;19.05;3.60;;;;;;;;;;4991636;28;91765;-73
2022/09/05 01:58:45;;;;;;;5.28;3.42;;;;;;;;;;4988845;28;88952;-73
2022/09/05 02:01:14;;;;;;;5.10;4.03;;;;;;;;;;5006231;28;89627;-73
2022/09/05 02:04:21;;;;;;;6.80;3.58;;;;;;;;;;5000654;28;88110;-73
2022/09/05 02:06:56;;;;;;;11.27;3.80;;;;;;;;;;5013596;28;88551;-73
2022/09/05 02:10:18;;;;;;;4.28;3.47;;;;;;;;;;4990588;28;88516;-73
2022/09/05 02:12:47;;;;;;;6.53;3.90;;;;;;;;;;4939666;28;88108;-74
2022/09/05 02:15:36;;;;;;;7.15;4.07;;;;;;;;;;4945373;28;88792;-73
2022/09/05 02:18:04;;;;;;;4.97;4.47;;;;;;;;;;4948580;28;89018;-73
2022/09/05 02:20:40;;;;;;;10.82;4.70;;;;;;;;;;4952734;28;88631;-73
2022/09/05 02:23:06;;;;;;;15.75;5.25;;;;;;;;;;4937435;28;89204;-73
2022/09/05 02:25:55;;;;;;;13.65;5.22;;;;;;;;;;4952537;28;88079;-73
2022/09/05 02:28:35;;;;;;;20.05;4.68;;;;;;;;;;4937982;28;89158;-73
2022/09/05 02:31:06;;;;;;;5.82;3.92;;;;;;;;;;4935535;28;88961;-73
2022/09/05 02:33:50;;;;;;;22.67;4.97;;;;;;;;;;4937611;28;89960;-73
2022/09/05 02:36:35;;;;;;;8.82;3.97;;;;;;;;;;4946607;28;89037;-73
2022/09/05 02:39:04;;;;;;;12.93;4.60;;;;;;;;;;4941988;28;88900;-74
2022/09/05 02:41:58;;;;;;;12.60;4.43;;;;;;;;;;4945930;28;88383;-74
2022/09/05 02:45:03;;;;;;;8.60;4.45;;;;;;;;;;4941613;28;88610;-73
2022/09/05 02:47:54;;;;;;;9.13;3.90;;;;;;;;;;4990187;28;89871;-73
2022/09/05 02:50:38;;;;;;;8.23;4.20;;;;;;;;;;5007980;28;88275;-73
2022/09/05 02:53:25;;;;;;;11.02;3.97;;;;;;;;;;5009412;28;92005;-73
2022/09/05 02:56:12;;;;;;;8.20;3.70;;;;;;;;;;5003344;28;88785;-73
2022/09/05 02:59:03;;;;;;;8.80;3.95;;;;;;;;;;5007441;28;89116;-73
2022/09/05 03:01:37;;;;;;;11.40;4.50;;;;;;;;;;5002932;28;89040;-73
2022/09/05 03:04:12;;;;;;;8.52;3.70;;;;;;;;;;5004280;28;88009;-73
2022/09/05 03:06:41;;;;;;;14.32;3.90;;;;;;;;;;4989807;28;90099;-73
2022/09/05 03:09:22;;;;;;;10.50;3.80;;;;;;;;;;4997189;28;88114;-73
2022/09/05 03:12:08;;;;;;;10.95;4.53;;;;;;;;;;4989004;28;88958;-73
2022/09/05 03:15:00;;;;;;;11.98;4.10;;;;;;;;;;4998854;28;88095;-75
2022/09/05 03:17:45;;;;;;;17.88;4.03;;;;;;;;;;4977997;28;88084;-73
2022/09/05 03:20:31;;;;;;;9.80;3.50;;;;;;;;;;4998693;28;89827;-73
2022/09/05 03:23:27;;;;;;;13.60;3.80;;;;;;;;;;4995951;28;90134;-73
2022/09/05 03:26:25;;;;;;;11.70;5.38;;;;;;;;;;4997496;28;88104;-73
2022/09/05 03:29:06;;;;;;;5.97;3.92;;;;;;;;;;4985400;28;88716;-73
2022/09/05 03:31:46;;;;;;;15.27;4.22;;;;;;;;;;4995801;28;89293;-74
2022/09/05 03:34:24;;;;;;;9.38;3.58;;;;;;;;;;5012798;28;88683;-72
2022/09/05 03:37:18;;;;;;;12.90;4.28;;;;;;;;;;4993840;28;88427;-73
2022/09/05 03:39:47;;;;;;;9.90;4.32;;;;;;;;;;4999500;28;88268;-73
2022/09/05 03:42:16;;;;;;;17.85;4.18;;;;;;;;;;4998636;28;88968;-74
2022/09/05 03:44:47;;;;;;;16.45;4.25;;;;;;;;;;4995306;28;88984;-74
2022/09/05 03:47:13;;;;;;;9.05;4.43;;;;;;;;;;4997785;28;88290;-73
2022/09/05 03:49:45;;;;;;;17.00;5.20;;;;;;;;;;4999494;28;88786;-72
2022/09/05 03:52:50;;;;;;;7.85;4.50;;;;;;;;;;5003943;28;89020;-72
2022/09/05 03:55:56;;;;;;;8.25;5.03;;;;;;;;;;4993637;28;88717;-73
2022/09/05 03:58:45;;;;;;;11.23;4.82;;;;;;;;;;5002288;28;89075;-73
2022/09/05 04:01:34;;;;;;;18.00;4.90;;;;;;;;;;4994510;28;89065;-74
2022/09/05 04:04:26;;;;;;;14.18;5.38;;;;;;;;;;4996952;28;88797;-74
2022/09/05 04:07:19;;;;;;;13.13;5.10;;;;;;;;;;4993497;28;88277;-74
2022/09/05 04:10:08;;;;;;;17.75;4.50;;;;;;;;;;5001040;28;88011;-73
2022/09/05 04:12:58;;;;;;;15.07;4.73;;;;;;;;;;5015975;28;88395;-73
2022/09/05 04:15:27;;;;;;;12.77;4.33;;;;;;;;;;4991338;28;88682;-73
2022/09/05 04:17:58;;;;;;;11.55;4.32;;;;;;;;;;4998096;28;88949;-72
2022/09/05 04:20:29;;;;;;;7.18;4.80;;;;;;;;;;4994461;28;89434;-73
2022/09/05 04:23:01;;;;;;;11.02;4.75;;;;;;;;;;4980103;28;88187;-72
2022/09/05 04:25:40;;;;;;;14.70;4.40;;;;;;;;;;4990802;28;88878;-73
2022/09/05 04:28:09;;;;;;;13.80;3.97;;;;;;;;;;4985959;28;89626;-73
2022/09/05 04:30:56;;;;;;;9.75;4.60;;;;;;;;;;5002327;28;88089;-73
2022/09/05 04:33:36;;;;;;;14.95;4.35;;;;;;;;;;4997821;28;89410;-73
2022/09/05 04:36:05;;;;;;;10.32;4.15;;;;;;;;;;4998328;28;88536;-73
2022/09/05 04:38:43;;;;;;;9.63;4.50;;;;;;;;;;4996256;28;88579;-73
2022/09/05 04:41:10;;;;;;;7.60;4.20;;;;;;;;;;5006349;28;88626;-73
2022/09/05 04:43:42;;;;;;;15.70;4.85;;;;;;;;;;5012654;28;89016;-73
2022/09/05 04:46:11;;;;;;;10.88;4.43;;;;;;;;;;4996994;28;89728;-74
2022/09/05 04:48:52;;;;;;;9.10;4.63;;;;;;;;;;4996857;28;89049;-73
2022/09/05 04:51:32;;;;;;;9.60;4.47;;;;;;;;;;5013913;28;88088;-73
2022/09/05 04:54:05;;;;;;;8.37;4.87;;;;;;;;;;5002206;28;88072;-74
2022/09/05 04:56:35;;;;;;;14.60;5.25;;;;;;;;;;4980597;28;89050;-74
2022/09/05 04:59:07;;;;;;;10.52;5.10;;;;;;;;;;4992160;28;88931;-74
2022/09/05 05:01:56;;;;;;;10.15;4.65;;;;;;;;;;4999881;28;88487;-74
2022/09/05 05:04:42;;;;;;;8.02;4.25;;;;;;;;;;4995451;28;89231;-73
2022/09/05 05:07:47;;;;;;;5.55;3.80;;;;;;;;;;4999455;28;88717;-73
2022/09/05 05:10:41;;;;;;;8.65;4.47;;;;;;;;;;4991683;28;89718;-73
2022/09/05 05:13:42;;;;;;;18.13;5.28;;;;;;;;;;5002367;28;88054;-73
2022/09/05 05:16:31;;;;;;;18.70;4.80;;;;;;;;;;4983503;28;89714;-72
2022/09/05 05:19:24;;;;;;;9.82;5.22;;;;;;;;;;5004728;28;88878;-71
2022/09/05 05:21:53;;;;;;;11.45;5.03;;;;;;;;;;4987643;28;88532;-72
2022/09/05 05:24:39;;;;;;;11.00;5.20;;;;;;;;;;5003279;28;88471;-72
2022/09/05 05:27:15;;;;;;;7.03;5.25;;;;;;;;;;4982884;28;88947;-72
2022/09/05 05:30:01;;;;;;;7.88;5.00;;;;;;;;;;5005648;28;88826;-72
2022/09/05 05:32:30;;;;;;;9.20;5.90;;;;;;;;;;5002097;28;90256;-72
2022/09/05 05:35:13;;;;;;;15.70;5.72;;;;;;;;;;5000918;28;88079;-72
2022/09/05 05:37:39;;;;;;;16.20;6.35;;;;;;;;;;4999572;28;88681;-72
2022/09/05 05:40:07;;;;;;;9.23;6.13;;;;;;;;;;5001020;28;89048;-72
2022/09/05 05:42:35;;;;;;;13.25;5.85;;;;;;;;;;4999940;28;88163;-72
2022/09/05 05:45:02;;;;;;;14.60;6.22;;;;;;;;;;5005846;28;88861;-72
2022/09/05 05:47:30;;;;;;;19.35;7.13;;;;;;;;;;4997077;28;89255;-72
2022/09/05 05:50:08;;;;;;;21.33;6.47;;;;;;;;;;4990609;28;89719;-72
2022/09/05 05:52:36;;;;;;;10.55;6.28;;;;;;;;;;4988569;28;89030;-73
2022/09/05 05:55:21;;;;;;;19.02;6.22;;;;;;;;;;4998245;28;87689;-73
2022/09/05 05:58:08;;;;;;;16.42;6.75;;;;;;;;;;4993005;28;89274;-72
2022/09/05 06:00:37;;;;;;;27.42;7.07;;;;;;;;;;4994662;28;89045;-72
2022/09/05 06:03:22;;;;;;;29.33;6.85;;;;;;;;;;5013244;28;88753;-72
2022/09/05 06:06:07;;;;;;;24.70;6.53;;;;;;;;;;4999748;28;89798;-73
2022/09/05 06:08:37;;;;;;;28.38;6.85;;;;;;;;;;5003088;28;89789;-72
2022/09/05 06:11:48;;;;;;;45.40;7.15;;;;;;;;;;4997953;28;89411;-72
2022/09/05 06:14:47;;;;;;;20.80;6.53;;;;;;;;;;4991471;28;89274;-72
2022/09/05 06:17:34;;;;;;;29.95;7.18;;;;;;;;;;4984736;28;88118;-73
2022/09/05 06:20:00;;;;;;;25.58;7.43;;;;;;;;;;4999223;28;88695;-72
2022/09/05 06:22:46;;;;;;;25.88;7.72;;;;;;;;;;4993508;28;88476;-72
2022/09/05 06:25:31;;;;;;;23.13;7.35;;;;;;;;;;4997355;28;88635;-72
2022/09/05 06:28:06;;;;;;;22.63;8.60;;;;;;;;;;4987195;28;89239;-72
2022/09/05 06:31:05;;;;;;;24.25;8.85;;;;;;;;;;5010085;28;89756;-72
2022/09/05 06:33:51;;;;;;;18.88;8.90;;;;;;;;;;4993224;28;88126;-72
2022/09/05 06:36:29;;;;;;;23.83;9.60;;;;;;;;;;4999405;28;88771;-72
2022/09/05 06:39:11;;;;;;;24.35;9.45;;;;;;;;;;5003017;28;89451;-72
2022/09/05 06:42:10;;;;;;;28.20;9.98;;;;;;;;;;4998629;28;88613;-72
2022/09/05 06:45:02;;;;;;;19.10;8.60;;;;;;;;;;5000650;28;89224;-72
2022/09/05 06:47:49;;;;;;;20.23;9.30;;;;;;;;;;5009407;28;89779;-72
2022/09/05 06:50:23;;;;;;;17.77;9.35;;;;;;;;;;4994894;28;88805;-72
2022/09/05 06:52:53;;;;;;;18.40;9.68;;;;;;;;;;4995932;28;88423;-72
2022/09/05 06:55:33;;;;;;;17.55;8.88;;;;;;;;;;4999205;28;88191;-72
2022/09/05 06:58:18;;;;;;;26.80;9.73;;;;;;;;;;5004288;28;88722;-72
2022/09/05 07:00:51;;;;;;;32.50;10.68;;;;;;;;;;5003794;28;89752;-71
2022/09/05 07:03:20;;;;;;;15.82;10.95;;;;;;;;;;5001842;28;88960;-71
2022/09/05 07:06:15;;;;;;;15.10;10.68;;;;;;;;;;4985789;28;89169;-71
2022/09/05 07:08:52;;;;;;;24.08;11.65;;;;;;;;;;5007948;28;90408;-73
2022/09/05 07:11:20;;;;;;;18.02;10.75;;;;;;;;;;5011932;28;89448;-73
2022/09/05 07:13:56;;;;;;;23.90;10.88;;;;;;;;;;4996852;28;89039;-73
2022/09/05 07:16:35;;;;;;;15.13;11.23;;;;;;;;;;4999310;28;90250;-73
2022/09/05 07:19:04;;;;;;;21.48;10.48;;;;;;;;;;4997706;28;89647;-73
2022/09/05 07:21:39;;;;;;;20.23;10.73;;;;;;;;;;4997580;28;89942;-73
2022/09/05 07:24:11;;;;;;;23.20;10.40;;;;;;;;;;5010128;28;90383;-73
2022/09/05 07:26:40;;;;;;;20.48;9.60;;;;;;;;;;4995369;28;89136;-73
2022/09/05 07:29:22;;;;;;;24.17;10.10;;;;;;;;;;4990693;28;90424;-73
2022/09/05 07:31:51;;;;;;;17.20;9.70;;;;;;;;;;5017711;28;89711;-73
2022/09/05 07:34:23;;;;;;;15.30;9.57;;;;;;;;;;5007538;28;89010;-73
2022/09/05 07:36:52;;;;;;;13.13;8.80;;;;;;;;;;4994692;28;89416;-73
2022/09/05 07:39:41;;;;;;;17.15;9.05;;;;;;;;;;4998586;28;88166;-73
2022/09/05 07:42:12;;;;;;;15.68;8.63;;;;;;;;;;5011854;28;89212;-73
2022/09/05 07:44:43;;;;;;;13.13;8.73;;;;;;;;;;5001837;28;88082;-73
2022/09/05 07:47:09;;;;;;;;;;;;;;;;;;4998239;28;89085;-73
2022/09/05 07:49:36;;;;;;;20.92;7.95;;;;;;;;;;4998293;28;118079;-73
2022/09/05 07:52:26;;;;;;;8.38;6.65;;;;;;;;;;4992102;28;89141;-74
2022/09/05 07:55:24;;;;;;;11.45;6.50;;;;;;;;;;4992070;28;88480;-74
2022/09/05 07:58:13;;;;;;;16.20;6.60;;;;;;;;;;4996680;28;88139;-73
2022/09/05 08:00:41;;;;;;;15.73;6.65;;;;;;;;;;4995592;28;89202;-72
2022/09/05 08:03:09;;;;;;;13.10;6.45;;;;;;;;;;4981857;28;89074;-72
2022/09/05 08:05:43;;;;;;;15.98;6.80;;;;;;;;;;4979705;28;88056;-72
2022/09/05 08:08:15;;;;;;;13.30;5.95;;;;;;;;;;4997172;28;88765;-72
2022/09/05 08:10:49;;;;;;;11.07;6.20;;;;;;;;;;4995902;28;89616;-74
2022/09/05 08:13:38;;;;;;;15.48;6.22;;;;;;;;;;4996513;28;90345;-75
2022/09/05 08:16:06;;;;;;;8.27;5.33;;;;;;;;;;4995504;28;90034;-77
2022/09/05 08:18:39;;;;;;;7.95;4.43;;;;;;;;;;4977829;28;88227;-77
2022/09/05 08:21:12;;;;;;;8.07;3.80;;;;;;;;;;4992258;28;88688;-75
2022/09/05 08:23:49;;;;;;;10.93;3.65;;;;;;;;;;4998213;28;90408;-78
2022/09/05 08:26:22;;;;;;;10.05;4.25;;;;;;;;;;4997751;28;87970;-79
2022/09/05 08:28:54;;;;;;;35.20;5.03;;;;;;;;;;4986090;28;88874;-71
2022/09/05 08:31:31;;;;;;;10.85;3.35;;;;;;;;;;4999453;28;88922;-71
2022/09/05 08:34:01;;;;;;;9.43;3.45;;;;;;;;;;5018855;28;87866;-72
2022/09/05 08:36:31;;;;;;;7.57;2.33;;;;;;;;;;5017907;28;89197;-71
2022/09/05 08:38:58;;;;;;;4.90;1.77;;;;;;;;;;5000344;28;88528;-71
2022/09/05 08:41:28;;;;;;;5.82;2.20;;;;;;;;;;4997494;28;88832;-71
2022/09/05 08:44:20;;;;;;;4.25;1.88;;;;;;;;;;4996836;28;88952;-71
2022/09/05 08:47:14;;;;;;;5.28;1.80;;;;;;;;;;4994510;28;88247;-71
2022/09/05 08:49:56;;;;;;;9.48;1.85;;;;;;;;;;5017229;28;90113;-71
2022/09/05 08:52:27;;;;;;;1.80;1.70;;;;;;;;;;5017410;28;89362;-71
2022/09/05 08:54:53;;;;;;;8.80;1.92;;;;;;;;;;5007024;28;88901;-71
2022/09/05 08:57:55;;;;;;;6.10;1.73;;;;;;;;;;5000480;28;88754;-71
2022/09/05 09:00:21;;;;;;;8.67;1.87;;;;;;;;;;4985100;28;87962;-71
2022/09/05 09:03:12;;;;;;;3.50;1.95;;;;;;;;;;4992747;28;88395;-72
2022/09/05 09:05:53;;;;;;;3.42;1.90;;;;;;;;;;4995640;28;89510;-72
2022/09/05 09:08:52;;;;;;;5.75;1.77;;;;;;;;;;4986085;28;88729;-70
2022/09/05 09:11:21;;;;;;;11.48;2.03;;;;;;;;;;4980713;28;89540;-70
2022/09/05 09:13:53;;;;;;;7.55;2.10;;;;;;;;;;4980968;28;89088;-71
2022/09/05 09:16:36;;;;;;;7.90;2.70;;;;;;;;;;5001600;28;88117;-72
2022/09/05 09:19:08;;;;;;;3.67;2.00;;;;;;;;;;4988813;28;88664;-71
2022/09/05 09:21:41;;;;;;;8.30;2.58;;;;;;;;;;5003799;28;89260;-74
2022/09/05 09:24:26;;;;;;;22.02;2.00;;;;;;;;;;4996654;28;88967;-73
2022/09/05 09:26:58;;;;;;;6.93;1.65;;;;;;;;;;5016030;28;88716;-70
2022/09/05 09:29:26;;;;;;;5.70;2.33;;;;;;;;;;5020757;28;87985;-72
2022/09/05 09:31:55;;;;;;;;;;;;;;;;;;5021177;28;89047;-72
2022/09/05 09:34:24;;;;;;;8.25;1.98;;;;;;;;;;5003519;28;120382;-71
2022/09/05 09:36:56;;;;;;;13.05;2.42;;;;;;;;;;4998263;28;88044;-72
2022/09/05 09:39:36;;;;;;;7.65;1.90;;;;;;;;;;4999547;28;88679;-71
2022/09/05 09:42:10;;;;;;;10.38;2.10;;;;;;;;;;5001160;28;89985;-71
2022/09/05 09:45:15;;;;;;;10.40;1.60;;;;;;;;;;5000781;28;88860;-71
2022/09/05 09:47:57;;;;;;;3.72;1.50;;;;;;;;;;4980172;28;89503;-71
2022/09/05 09:50:41;;;;;;;4.37;1.40;;;;;;;;;;5008749;28;89466;-72
2022/09/05 09:53:48;;;;;;;9.73;1.55;;;;;;;;;;5000058;28;88826;-71
2022/09/05 09:56:33;;;;;;;12.60;1.48;;;;;;;;;;5000643;28;88912;-71
2022/09/05 09:59:02;;;;;;;5.85;1.70;;;;;;;;;;4998106;28;89059;-71
2022/09/05 10:01:37;;;;;;;7.63;1.60;;;;;;;;;;4986448;28;89068;-71
2022/09/05 10:04:21;;;;;;;4.53;1.50;;;;;;;;;;4998470;28;88997;-71
2022/09/05 10:07:34;;;;;;;4.50;1.63;;;;;;;;;;4982807;28;89407;-71
2022/09/05 10:10:32;;;;;;;8.13;1.63;;;;;;;;;;4980492;28;89043;-71
2022/09/05 10:13:20;;;;;;;7.38;1.70;;;;;;;;;;4998512;28;88014;-71
2022/09/05 10:16:05;;;;;;;4.88;1.83;;;;;;;;;;4997598;28;91068;-71
2022/09/05 10:18:44;;;;;;;10.65;1.77;;;;;;;;;;5000078;28;88823;-72
2022/09/05 10:21:42;;;;;;;5.25;1.45;;;;;;;;;;4998982;28;89288;-72
2022/09/05 10:24:12;;;;;;;12.35;1.50;;;;;;;;;;4978621;28;89224;-72
2022/09/05 10:26:41;;;;;;;19.93;2.27;;;;;;;;;;4977539;28;88840;-72
2022/09/05 10:29:10;;;;;;;3.97;1.25;;;;;;;;;;4992643;28;88817;-72
2022/09/05 10:32:07;;;;;;;3.63;1.38;;;;;;;;;;4971597;28;88527;-72
2022/09/05 10:34:57;;;;;;;3.75;0.90;;;;;;;;;;4963194;28;88324;-72
2022/09/05 10:37:43;;;;;;;;;;;;;;;;;;4978311;28;88510;-72
2022/09/05 10:40:11;;;;;;;13.10;1.48;;;;;;;;;;4994618;28;120521;-72
2022/09/05 10:42:44;;;;;;;8.07;1.40;;;;;;;;;;4976585;28;88256;-72
2022/09/05 10:45:44;;;;;;;4.50;1.15;;;;;;;;;;4976353;28;89031;-72
2022/09/05 10:48:29;;;;;;;3.35;1.50;;;;;;;;;;4990991;28;88162;-72
2022/09/05 10:51:02;;;;;;;2.40;1.10;;;;;;;;;;4988605;28;88093;-72
2022/09/05 10:53:40;;;;;;;3.92;1.00;;;;;;;;;;4973968;28;90987;-72
2022/09/05 10:56:14;;;;;;;2.65;0.90;;;;;;;;;;4961739;28;89367;-73
2022/09/05 10:59:00;;;;;;;2.85;0.80;;;;;;;;;;4955451;28;89311;-72
2022/09/05 11:01:56;;;;;;;1.42;1.00;;;;;;;;;;4999822;28;88826;-72
2022/09/05 11:04:50;;;;;;;2.63;1.00;;;;;;;;;;5018484;28;88132;-73
2022/09/05 11:07:18;;;;;;;5.15;1.30;;;;;;;;;;5018162;28;92159;-73
2022/09/05 11:09:55;;;;;;;2.15;0.98;;;;;;;;;;4978120;28;89321;-72
2022/09/05 11:12:40;;;;;;;3.03;1.20;;;;;;;;;;4979739;28;88684;-72
2022/09/05 11:15:25;;;;;;;2.00;0.98;;;;;;;;;;4994040;28;89762;-73
2022/09/05 11:18:03;;;;;;;1.80;0.88;;;;;;;;;;5000965;28;89300;-71
2022/09/05 11:20:47;;;;;;;1.25;0.90;;;;;;;;;;5000196;28;88273;-70
2022/09/05 11:23:19;;;;;;;4.55;1.00;;;;;;;;;;4978451;28;89975;-70
2022/09/05 11:25:49;;;;;;;4.40;1.23;;;;;;;;;;4994038;28;88126;-70
2022/09/05 11:28:20;;;;;;;2.50;1.38;;;;;;;;;;4977056;28;88558;-70
2022/09/05 11:30:52;;;;;;;3.97;1.10;;;;;;;;;;5002903;28;91905;-70
2022/09/05 11:33:38;;;;;;;6.00;1.00;;;;;;;;;;4997804;28;87981;-70
2022/09/05 11:36:29;;;;;;;6.22;1.00;;;;;;;;;;4978701;28;88739;-71
2022/09/05 11:39:28;;;;;;;2.30;1.27;;;;;;;;;;4977447;28;89007;-72
2022/09/05 11:42:17;;;;;;;3.28;1.20;;;;;;;;;;4979352;28;87547;-72
2022/09/05 11:45:02;;;;;;;4.93;1.55;;;;;;;;;;4988917;28;88219;-72
2022/09/05 11:47:28;;;;;;;6.18;1.25;;;;;;;;;;5011774;28;88033;-72
2022/09/05 11:50:05;;;;;;;3.15;1.08;;;;;;;;;;5017808;28;89253;-72
2022/09/05 11:52:53;;;;;;;6.95;1.02;;;;;;;;;;5018063;28;88070;-72
2022/09/05 11:55:36;;;;;;;3.08;1.13;;;;;;;;;;4986368;28;88225;-70
2022/09/05 11:58:14;;;;;;;3.90;1.40;;;;;;;;;;4994225;28;88910;-71
2022/09/05 12:01:00;;;;;;;;;;;;;;;;;;4998664;28;88729;-70
2022/09/05 12:03:48;;;;;;;4.65;1.10;;;;;;;;;;5000309;28;88126;-71
2022/09/05 12:06:25;;;;;;;5.03;1.10;;;;;;;;;;4994282;28;89364;-71
2022/09/05 12:09:00;;;;;;;4.83;1.20;;;;;;;;;;4998171;28;88704;-71
2022/09/05 12:11:45;;;;;;;10.90;1.25;;;;;;;;;;4997675;28;88319;-70
2022/09/05 12:14:30;;;;;;;2.70;1.30;;;;;;;;;;4997835;28;89044;-70
2022/09/05 12:17:16;;;;;;;8.55;1.13;;;;;;;;;;4995798;28;89181;-71
2022/09/05 12:20:16;;;;;;;3.63;1.42;;;;;;;;;;4998109;28;89762;-71
2022/09/05 12:23:00;;;;;;;8.18;1.48;;;;;;;;;;4996963;28;89064;-70
2022/09/05 12:25:47;;;;;;;11.25;1.65;;;;;;;;;;4995968;28;88088;-70
2022/09/05 12:28:40;;;;;;;7.15;1.35;;;;;;;;;;4977910;28;88459;-70
2022/09/05 12:31:27;;;;;;;3.83;1.02;;;;;;;;;;4993558;28;88612;-70
2022/09/05 12:34:17;;;;;;;5.90;1.13;;;;;;;;;;5002797;28;88377;-70
2022/09/05 12:37:08;;;;;;;8.75;1.30;;;;;;;;;;5000271;28;88467;-70
2022/09/05 12:39:55;;;;;;;5.03;1.10;;;;;;;;;;4991602;28;88136;-70
2022/09/05 12:42:59;;;;;;;4.38;1.10;;;;;;;;;;4997036;28;88060;-70
2022/09/05 12:45:57;;;;;;;7.72;1.67;;;;;;;;;;4996851;28;89734;-70
2022/09/05 12:48:28;;;;;;;3.72;1.58;;;;;;;;;;5016373;28;88011;-70
2022/09/05 12:51:10;;;;;;;4.18;1.25;;;;;;;;;;5016288;28;88927;-70
2022/09/05 12:53:59;;;;;;;7.55;1.30;;;;;;;;;;5002245;28;90180;-70
2022/09/05 12:56:32;;;;;;;10.68;1.67;;;;;;;;;;4994009;28;88039;-70
2022/09/05 12:59:25;;;;;;;6.63;1.77;;;;;;;;;;4977737;28;88656;-70
2022/09/05 13:02:22;;;;;;;8.13;1.80;;;;;;;;;;4978116;28;88148;-70
2022/09/05 13:05:11;;;;;;;3.42;1.30;;;;;;;;;;4987411;28;88493;-71
2022/09/05 13:07:42;;;;;;;7.57;2.10;;;;;;;;;;4987794;28;89216;-71
2022/09/05 13:10:18;;;;;;;6.75;1.55;;;;;;;;;;4988581;28;89755;-71
2022/09/05 13:13:07;;;;;;;4.05;1.30;;;;;;;;;;4991215;28;91387;-71
2022/09/05 13:15:55;;;;;;;5.75;1.48;;;;;;;;;;4983702;28;89533;-71
2022/09/05 13:18:37;;;;;;;12.43;1.70;;;;;;;;;;4987701;28;88448;-72
2022/09/05 13:21:24;;;;;;;7.00;1.30;;;;;;;;;;4978844;28;89708;-71
2022/09/05 13:24:10;;;;;;;8.05;1.40;;;;;;;;;;4990352;28;88288;-71
2022/09/05 13:26:39;;;;;;;6.75;1.58;;;;;;;;;;4987594;28;88742;-71
2022/09/05 13:29:18;;;;;;;9.20;1.77;;;;;;;;;;4991217;28;88643;-71
2022/09/05 13:31:47;;;;;;;3.28;1.38;;;;;;;;;;4990658;28;88631;-72
2022/09/05 13:34:45;;;;;;;5.28;1.30;;;;;;;;;;4993676;28;88423;-70
2022/09/05 13:37:41;;;;;;;4.75;1.30;;;;;;;;;;4997591;28;88979;-70
2022/09/05 13:40:33;;;;;;;4.57;1.60;;;;;;;;;;4994447;28;88798;-69
2022/09/05 13:42:59;;;;;;;9.07;1.10;;;;;;;;;;4992869;28;89348;-70
2022/09/05 13:45:25;;;;;;;13.40;1.58;;;;;;;;;;4983031;28;88982;-70
2022/09/05 13:48:01;;;;;;;1.23;1.05;;;;;;;;;;5004377;28;88566;-70
2022/09/05 13:50:34;;;;;;;5.63;1.27;;;;;;;;;;5004869;28;89806;-70
2022/09/05 13:53:19;;;;;;;5.32;1.40;;;;;;;;;;5015966;28;88300;-70
2022/09/05 13:55:52;;;;;;;5.10;1.48;;;;;;;;;;5000889;28;89164;-69
2022/09/05 13:58:41;;;;;;;7.55;1.40;;;;;;;;;;4987235;28;88271;-70
2022/09/05 14:01:28;;;;;;;5.63;1.40;;;;;;;;;;5011388;28;88231;-69
2022/09/05 14:04:19;;;;;;;6.93;1.30;;;;;;;;;;5014205;28;89060;-70
2022/09/05 14:07:13;;;;;;;7.18;1.83;;;;;;;;;;4979701;28;89337;-70
2022/09/05 14:10:15;;;;;;;5.07;1.48;;;;;;;;;;4985358;28;88140;-70
2022/09/05 14:12:47;;;;;;;2.60;1.30;;;;;;;;;;4998749;28;89115;-70
2022/09/05 14:15:33;;;;;;;3.97;1.27;;;;;;;;;;5000229;28;88149;-70
2022/09/05 14:18:14;;;;;;;15.63;1.65;;;;;;;;;;4997336;28;88827;-70
2022/09/05 14:21:17;;;;;;;3.33;1.40;;;;;;;;;;4999959;28;89392;-70
2022/09/05 14:24:02;;;;;;;8.27;1.75;;;;;;;;;;5000562;28;87924;-71
2022/09/05 14:26:35;;;;;;;7.80;1.42;;;;;;;;;;4997952;28;89452;-71
2022/09/05 14:29:05;;;;;;;4.65;1.10;;;;;;;;;;4998124;28;88052;-70
2022/09/05 14:31:45;;;;;;;6.25;1.38;;;;;;;;;;5000559;28;88696;-70
2022/09/05 14:34:39;;;;;;;4.50;1.30;;;;;;;;;;5005295;28;88813;-70
2022/09/05 14:37:39;;;;;;;4.78;1.55;;;;;;;;;;4979684;28;87975;-70
2022/09/05 14:40:44;;;;;;;10.65;1.50;;;;;;;;;;4979643;28;88389;-70
2022/09/05 14:43:20;;;;;;;6.25;1.48;;;;;;;;;;4978255;28;89494;-71
2022/09/05 14:45:52;;;;;;;4.03;1.35;;;;;;;;;;4992008;28;88277;-70
2022/09/05 14:48:50;;;;;;;3.33;1.17;;;;;;;;;;4998352;28;90081;-70
2022/09/05 14:51:21;;;;;;;4.82;1.42;;;;;;;;;;4979329;28;88963;-70
2022/09/05 14:53:54;;;;;;;6.13;1.40;;;;;;;;;;4985971;28;88402;-71
2022/09/05 14:56:39;;;;;;;2.95;1.40;;;;;;;;;;5002169;28;87965;-70
2022/09/05 14:59:32;;;;;;;4.43;1.60;;;;;;;;;;4999498;28;88493;-70
2022/09/05 15:02:29;;;;;;;6.60;1.35;;;;;;;;;;4991932;28;88740;-70
2022/09/05 15:05:18;;;;;;;9.25;1.50;;;;;;;;;;4999026;28;88046;-70
2022/09/05 15:07:46;;;;;;;5.63;1.48;;;;;;;;;;4991170;28;88475;-70
2022/09/05 15:10:16;;;;;;;10.43;1.85;;;;;;;;;;4998955;28;88679;-70
2022/09/05 15:13:12;;;;;;;4.53;1.50;;;;;;;;;;4997230;28;88627;-71
2022/09/05 15:15:49;;;;;;;6.18;1.38;;;;;;;;;;4996854;28;88172;-70
2022/09/05 15:18:32;;;;;;;7.75;1.30;;;;;;;;;;5019406;28;88609;-71
2022/09/05 15:21:17;;;;;;;3.03;1.38;;;;;;;;;;5020914;28;88839;-73
2022/09/05 15:24:00;;;;;;;5.13;1.27;;;;;;;;;;5012043;28;88379;-74
2022/09/05 15:26:29;;;;;;;5.72;1.38;;;;;;;;;;4998464;28;89269;-74
2022/09/05 15:29:23;;;;;;;2.92;1.25;;;;;;;;;;4997290;28;88750;-75
2022/09/05 15:31:49;;;;;;;7.97;1.45;;;;;;;;;;4998210;28;89512;-74
2022/09/05 15:34:34;;;;;;;8.35;1.25;;;;;;;;;;4996531;28;88062;-73
2022/09/05 15:37:21;;;;;;;3.35;1.25;;;;;;;;;;4997381;28;87902;-74
2022/09/05 15:39:58;;;;;;;2.13;1.33;;;;;;;;;;4991253;28;88720;-73
2022/09/05 15:42:28;;;;;;;2.53;1.60;;;;;;;;;;4998879;28;88002;-73
2022/09/05 15:45:01;;;;;;;2.70;1.80;;;;;;;;;;5016938;28;88305;-73
2022/09/05 15:47:38;;;;;;;2.88;1.52;;;;;;;;;;4985949;28;88558;-73
2022/09/05 15:50:08;;;;;;;4.93;1.30;;;;;;;;;;4994664;28;88187;-73
2022/09/05 15:52:49;;;;;;;10.05;1.42;;;;;;;;;;4981820;28;88732;-73
2022/09/05 15:55:22;;;;;;;4.50;1.35;;;;;;;;;;5018147;28;89908;-73
2022/09/05 15:58:07;;;;;;;4.97;1.67;;;;;;;;;;4996420;28;88053;-71
2022/09/05 16:00:39;;;;;;;3.67;1.40;;;;;;;;;;4986519;28;88705;-73